Kezdőlap
METAR-TAF:

METAR-TAF

Repülőterek :

Bonaire, Holland Antillák

földrajzi szélesség: 12-09N, földrajzi hosszúság: 068-17W, magasság: 6 m

Jelenlegi meteorológiai megfigyelések

A jelentés 1 órával és 5 perccel ezelõtt készült, 06:55 UTC
Keleti szél 15 kt
Hőmérséklet 28°C
Páratartalom 79%
Légköri nyomás 1011 hPa
Látótávolság 10 km, vagy több

METAR: TNCB 130655Z AUTO 09015KT 9999 FEW028/// SCT037/// 28/24 Q1011

Idő: 04:00 (08:00 UTC)

Előrejelzés

A jelentés 3 órával és 40 perccel ezelõtt készült, 04:20 UTC
Az előrejelzés 13-én 06 óra UTC és 14-én 12 óra UTC között érvényes
Keleti szél 16 kt
Látótávolság 10 km, vagy több
Szórványos felhőzet 1800 lábon

TAF: TNCB 130420Z 1306/1412 10016KT 9999 SCT018

Meteorológiai megfigyelések és előrejelzések több, mint 4000 repülőtéren (METAR és TAF jelentéseket).

A térképen piros és sárga pontok jelzik az elérhető meteorológiai állomásokat.

Mozgassa az egeret a pont fölött, hogy megjelenjen az állomás neve.

Azután kattintson az időjárási megfigyelések és előrejelzések megtekintéséhez.

A térkép megváltoztatása: kattintson a fekete keresztel jelölt zöld gombra ráközelítéshez, a vonallal jelölt zöld gombra távolításhoz, vagy a zöld nyilakra a szomszédos térképek eléréséhez.


METAR-TAF: